createdAt,value
2022-12-18T07:34:02.939Z,96.69
2022-12-18T07:36:15.456Z,96.90
2022-12-18T07:42:53.276Z,95.33
2022-12-18T07:48:35.900Z,94.13
2022-12-18T07:53:27.187Z,94.45
2022-12-18T07:54:35.640Z,94.45
2022-12-18T08:00:10.318Z,94.97
2022-12-18T08:01:06.141Z,94.97
2022-12-18T08:03:57.024Z,94.40
2022-12-18T08:04:54.461Z,94.09
2022-12-18T08:17:36.957Z,91.95
2022-12-18T08:21:59.502Z,91.85
2022-12-18T08:23:02.169Z,91.85
2022-12-18T08:24:00.019Z,91.63
2022-12-18T08:25:00.149Z,91.42
2022-12-18T08:26:00.143Z,91.06
2022-12-18T08:27:27.797Z,90.96
2022-12-18T08:37:21.517Z,90.96
2022-12-18T08:38:22.430Z,90.85
2022-12-18T08:39:25.254Z,90.85
2022-12-18T08:40:22.430Z,90.81
2022-12-18T08:41:22.451Z,90.50
2022-12-18T08:42:22.469Z,90.08
2022-12-18T08:43:22.438Z,90.18
2022-12-18T08:44:22.474Z,89.76
2022-12-18T08:45:22.578Z,89.82
2022-12-18T08:46:22.484Z,89.51
2022-12-18T08:49:41.985Z,88.87
2022-12-18T08:50:38.493Z,88.03
2022-12-18T08:51:39.391Z,87.78
2022-12-18T08:52:39.297Z,87.57
2022-12-18T08:53:40.071Z,87.25
2022-12-18T08:54:40.037Z,86.94
2022-12-18T08:55:39.266Z,86.27
2022-12-18T08:56:40.038Z,86.37
2022-12-18T08:57:39.362Z,86.79
2022-12-18T08:58:41.163Z,86.37
2022-12-18T08:59:39.251Z,85.95
2022-12-18T09:00:39.223Z,85.85
2022-12-18T09:01:39.378Z,86.27
2022-12-18T09:02:39.408Z,86.37
2022-12-18T09:03:39.765Z,86.27
2022-12-18T09:09:29.705Z,85.42
2022-12-18T09:10:29.487Z,85.85
2022-12-18T09:11:29.724Z,86.16
2022-12-18T09:12:29.608Z,85.85
2022-12-18T09:13:29.551Z,85.85
2022-12-18T09:14:29.537Z,85.85
2022-12-18T09:15:29.474Z,86.16
2022-12-18T09:16:32.292Z,86.27
2022-12-18T09:17:29.462Z,86.47
2022-12-18T09:18:29.467Z,86.27
2022-12-18T09:19:29.503Z,85.53
2022-12-18T09:20:29.477Z,84.54
2022-12-18T09:21:29.431Z,84.44
2022-12-18T09:22:29.475Z,84.65
2022-12-18T09:23:29.402Z,84.44
2022-12-18T09:24:29.404Z,84.23
2022-12-18T09:25:29.375Z,84.54
2022-12-18T09:26:29.383Z,84.75
2022-12-18T09:27:29.539Z,84.19
2022-12-18T09:28:29.370Z,83.76
2022-12-18T09:29:29.398Z,83.24
2022-12-18T09:30:29.406Z,82.82
2022-12-18T09:31:29.342Z,83.24
2022-12-18T09:32:29.348Z,82.50
2022-12-18T09:33:29.934Z,81.62
2022-12-18T09:34:30.300Z,81.62
2022-12-18T09:35:30.408Z,81.84
2022-12-18T09:52:57.481Z,77.62
2022-12-18T09:53:48.588Z,77.10
2022-12-18T09:59:52.340Z,75.91
2022-12-18T10:13:47.555Z,75.25
2022-12-18T10:14:05.488Z,74.93
2022-12-18T10:20:43.873Z,75.11
2022-12-18T10:27:35.083Z,72.66
2022-12-18T10:28:43.060Z,72.77
2022-12-18T10:30:55.611Z,74.02
2022-12-18T10:31:54.559Z,74.02
2022-12-18T10:32:54.448Z,72.56
2022-12-18T10:33:54.294Z,73.71
2022-12-18T10:35:00.028Z,73.50
2022-12-18T10:35:54.448Z,73.08
2022-12-18T10:36:54.315Z,73.08
2022-12-18T10:37:54.284Z,73.19
2022-12-18T10:38:54.871Z,73.19
2022-12-18T10:43:03.272Z,72.98
2022-12-18T10:43:43.320Z,73.50
2022-12-18T10:44:36.217Z,72.87
2022-12-18T10:51:10.346Z,71.16
2022-12-18T10:53:37.420Z,71.26
2022-12-18T10:56:10.460Z,70.85
2022-12-18T11:00:38.588Z,71.16
2022-12-18T11:01:23.000Z,71.23
2022-12-18T11:02:23.135Z,70.32
2022-12-18T11:03:22.730Z,70.40
2022-12-18T11:04:33.089Z,70.40
2022-12-18T11:05:22.671Z,71.13
2022-12-18T11:06:46.449Z,71.13
2022-12-18T11:07:22.784Z,71.03
